sensor_id;sensor_type;location;lat;lon;timestamp;temperature;humidity
41668;DHT22;27356;50.920;5.350;2022-11-15T05:48:23;11.70;99.90
41668;DHT22;27356;50.920;5.350;2022-11-15T05:50:48;11.70;99.90
41668;DHT22;27356;50.920;5.350;2022-11-15T05:53:14;11.70;99.90
41668;DHT22;27356;50.920;5.350;2022-11-15T05:55:41;11.60;99.90
41668;DHT22;27356;50.920;5.350;2022-11-15T05:58:07;11.60;99.90
41668;DHT22;27356;50.920;5.350;2022-11-15T06:00:32;11.50;99.90
41668;DHT22;27356;50.920;5.350;2022-11-15T06:02:58;11.50;99.90
41668;DHT22;27356;50.920;5.350;2022-11-15T06:05:23;11.50;99.90
41668;DHT22;27356;50.920;5.350;2022-11-15T06:07:49;11.50;99.90
41668;DHT22;27356;50.920;5.350;2022-11-15T06:10:15;11.60;99.90
41668;DHT22;27356;50.920;5.350;2022-11-15T06:12:40;11.40;99.90
41668;DHT22;27356;50.920;5.350;2022-11-15T06:15:06;11.40;99.90
41668;DHT22;27356;50.920;5.350;2022-11-15T06:17:32;11.40;99.90
41668;DHT22;27356;50.920;5.350;2022-11-15T06:19:57;11.40;99.90
41668;DHT22;27356;50.920;5.350;2022-11-15T06:22:23;11.40;99.90
41668;DHT22;27356;50.920;5.350;2022-11-15T06:24:48;11.40;99.90
41668;DHT22;27356;50.920;5.350;2022-11-15T06:27:14;11.30;99.90
41668;DHT22;27356;50.920;5.350;2022-11-15T06:29:39;11.30;99.90
41668;DHT22;27356;50.920;5.350;2022-11-15T06:32:05;11.30;99.90
41668;DHT22;27356;50.920;5.350;2022-11-15T06:34:31;11.30;99.90
41668;DHT22;27356;50.920;5.350;2022-11-15T06:36:56;11.30;99.90
41668;DHT22;27356;50.920;5.350;2022-11-15T06:39:22;11.20;99.90
41668;DHT22;27356;50.920;5.350;2022-11-15T06:41:48;11.20;99.90
41668;DHT22;27356;50.920;5.350;2022-11-15T06:44:13;11.10;99.90
41668;DHT22;27356;50.920;5.350;2022-11-15T06:46:39;11.10;99.90
41668;DHT22;27356;50.920;5.350;2022-11-15T06:49:04;11.00;99.90
41668;DHT22;27356;50.920;5.350;2022-11-15T06:51:30;10.80;99.90
41668;DHT22;27356;50.920;5.350;2022-11-15T06:53:55;10.80;99.90
41668;DHT22;27356;50.920;5.350;2022-11-15T06:56:21;10.80;99.90
41668;DHT22;27356;50.920;5.350;2022-11-15T06:58:46;10.80;99.90
41668;DHT22;27356;50.920;5.350;2022-11-15T07:01:12;10.80;99.90
41668;DHT22;27356;50.920;5.350;2022-11-15T07:03:39;10.90;99.90
41668;DHT22;27356;50.920;5.350;2022-11-15T07:06:05;10.90;99.90
41668;DHT22;27356;50.920;5.350;2022-11-15T07:08:31;10.90;99.90
41668;DHT22;27356;50.920;5.350;2022-11-15T07:11:00;10.90;99.90
41668;DHT22;27356;50.920;5.350;2022-11-15T07:13:27;10.80;99.90
41668;DHT22;27356;50.920;5.350;2022-11-15T07:15:53;10.70;99.90
41668;DHT22;27356;50.920;5.350;2022-11-15T07:18:18;10.80;99.90
41668;DHT22;27356;50.920;5.350;2022-11-15T07:20:44;10.80;99.90
41668;DHT22;27356;50.920;5.350;2022-11-15T07:23:09;10.80;99.90
41668;DHT22;27356;50.920;5.350;2022-11-15T07:25:35;10.80;99.90
41668;DHT22;27356;50.920;5.350;2022-11-15T07:28:00;10.90;99.90
41668;DHT22;27356;50.920;5.350;2022-11-15T07:30:26;10.80;99.90
41668;DHT22;27356;50.920;5.350;2022-11-15T07:32:59;10.80;99.90
41668;DHT22;27356;50.920;5.350;2022-11-15T07:35:25;10.70;99.90
41668;DHT22;27356;50.920;5.350;2022-11-15T07:40:20;10.60;99.90
41668;DHT22;27356;50.920;5.350;2022-11-15T07:42:45;10.60;99.90
41668;DHT22;27356;50.920;5.350;2022-11-15T07:45:21;10.60;99.90
41668;DHT22;27356;50.920;5.350;2022-11-15T07:47:48;10.70;99.90
41668;DHT22;27356;50.920;5.350;2022-11-15T07:50:13;10.80;99.90
41668;DHT22;27356;50.920;5.350;2022-11-15T07:52:39;10.90;99.90
41668;DHT22;27356;50.920;5.350;2022-11-15T07:55:04;10.80;99.90
41668;DHT22;27356;50.920;5.350;2022-11-15T07:57:30;10.90;99.90
41668;DHT22;27356;50.920;5.350;2022-11-15T07:59:56;11.00;99.90
41668;DHT22;27356;50.920;5.350;2022-11-15T08:02:21;11.00;99.90
41668;DHT22;27356;50.920;5.350;2022-11-15T08:04:47;11.00;99.90
41668;DHT22;27356;50.920;5.350;2022-11-15T08:07:12;11.00;99.90
41668;DHT22;27356;50.920;5.350;2022-11-15T08:09:38;11.20;99.90
41668;DHT22;27356;50.920;5.350;2022-11-15T08:12:04;11.20;99.90
41668;DHT22;27356;50.920;5.350;2022-11-15T08:14:29;11.10;99.90
41668;DHT22;27356;50.920;5.350;2022-11-15T08:16:55;11.10;99.90
41668;DHT22;27356;50.920;5.350;2022-11-15T08:19:20;11.20;99.90
41668;DHT22;27356;50.920;5.350;2022-11-15T08:21:46;11.30;99.90
41668;DHT22;27356;50.920;5.350;2022-11-15T08:24:12;11.30;99.90
41668;DHT22;27356;50.920;5.350;2022-11-15T08:26:37;11.40;99.90
41668;DHT22;27356;50.920;5.350;2022-11-15T08:29:03;11.60;99.90
41668;DHT22;27356;50.920;5.350;2022-11-15T08:31:29;11.60;99.90
41668;DHT22;27356;50.920;5.350;2022-11-15T08:33:54;11.40;99.90
41668;DHT22;27356;50.920;5.350;2022-11-15T08:36:20;11.60;99.90
41668;DHT22;27356;50.920;5.350;2022-11-15T08:38:45;11.60;99.90
41668;DHT22;27356;50.920;5.350;2022-11-15T08:41:19;11.80;99.90
41668;DHT22;27356;50.920;5.350;2022-11-15T08:43:48;11.90;99.90
41668;DHT22;27356;50.920;5.350;2022-11-15T08:46:14;11.80;99.90
41668;DHT22;27356;50.920;5.350;2022-11-15T08:48:40;11.80;99.90
41668;DHT22;27356;50.920;5.350;2022-11-15T08:51:05;11.80;99.90
41668;DHT22;27356;50.920;5.350;2022-11-15T08:53:31;11.90;99.90
41668;DHT22;27356;50.920;5.350;2022-11-15T08:55:56;11.70;99.90
41668;DHT22;27356;50.920;5.350;2022-11-15T08:58:22;11.60;99.90
41668;DHT22;27356;50.920;5.350;2022-11-15T09:00:48;11.70;99.90
41668;DHT22;27356;50.920;5.350;2022-11-15T09:03:13;11.80;99.90
41668;DHT22;27356;50.920;5.350;2022-11-15T09:05:39;11.70;99.90
41668;DHT22;27356;50.920;5.350;2022-11-15T09:08:04;11.70;99.90
41668;DHT22;27356;50.920;5.350;2022-11-15T09:10:30;11.70;99.90
41668;DHT22;27356;50.920;5.350;2022-11-15T09:12:58;11.60;99.90
41668;DHT22;27356;50.920;5.350;2022-11-15T09:15:24;11.60;99.90
41668;DHT22;27356;50.920;5.350;2022-11-15T09:17:49;11.60;99.90
41668;DHT22;27356;50.920;5.350;2022-11-15T09:20:15;11.60;99.90
41668;DHT22;27356;50.920;5.350;2022-11-15T09:22:41;11.60;99.90
41668;DHT22;27356;50.920;5.350;2022-11-15T09:25:06;11.60;99.90
41668;DHT22;27356;50.920;5.350;2022-11-15T09:27:32;11.60;99.90
41668;DHT22;27356;50.920;5.350;2022-11-15T09:29:58;11.60;99.90
41668;DHT22;27356;50.920;5.350;2022-11-15T09:32:23;11.60;99.90
41668;DHT22;27356;50.920;5.350;2022-11-15T09:34:49;11.60;99.90
41668;DHT22;27356;50.920;5.350;2022-11-15T09:37:15;11.40;99.90
41668;DHT22;27356;50.920;5.350;2022-11-15T09:39:40;11.40;99.90
41668;DHT22;27356;50.920;5.350;2022-11-15T09:44:47;11.60;99.90
41668;DHT22;27356;50.920;5.350;2022-11-15T09:50:07;11.60;99.90
41668;DHT22;27356;50.920;5.350;2022-11-15T09:52:34;11.70;99.90
41668;DHT22;27356;50.920;5.350;2022-11-15T09:55:01;11.70;99.90
41668;DHT22;27356;50.920;5.350;2022-11-15T09:57:30;11.70;99.90
41668;DHT22;27356;50.920;5.350;2022-11-15T10:02:51;12.10;99.90
41668;DHT22;27356;50.920;5.350;2022-11-15T10:05:22;12.20;99.90
41668;DHT22;27356;50.920;5.350;2022-11-15T10:08:03;12.40;99.90
41668;DHT22;27356;50.920;5.350;2022-11-15T10:10:47;12.60;99.90
41668;DHT22;27356;50.920;5.350;2022-11-15T10:13:19;12.70;99.90
41668;DHT22;27356;50.920;5.350;2022-11-15T10:15:47;12.90;99.90
41668;DHT22;27356;50.920;5.350;2022-11-15T10:18:14;13.00;99.90
41668;DHT22;27356;50.920;5.350;2022-11-15T10:20:49;12.90;99.90
41668;DHT22;27356;50.920;5.350;2022-11-15T10:23:18;12.90;99.90
41668;DHT22;27356;50.920;5.350;2022-11-15T10:25:44;12.80;99.90
41668;DHT22;27356;50.920;5.350;2022-11-15T10:28:26;12.90;99.90
41668;DHT22;27356;50.920;5.350;2022-11-15T10:30:53;13.00;99.90
41668;DHT22;27356;50.920;5.350;2022-11-15T10:33:38;13.00;99.90
41668;DHT22;27356;50.920;5.350;2022-11-15T10:41:13;12.60;99.90
41668;DHT22;27356;50.920;5.350;2022-11-15T10:43:38;12.60;99.90
41668;DHT22;27356;50.920;5.350;2022-11-15T10:46:20;12.50;99.90
41668;DHT22;27356;50.920;5.350;2022-11-15T10:48:46;12.40;99.90
41668;DHT22;27356;50.920;5.350;2022-11-15T10:51:23;12.40;99.90
41668;DHT22;27356;50.920;5.350;2022-11-15T10:53:54;12.50;99.90
41668;DHT22;27356;50.920;5.350;2022-11-15T10:56:20;12.60;99.90
41668;DHT22;27356;50.920;5.350;2022-11-15T10:58:55;12.80;99.90
41668;DHT22;27356;50.920;5.350;2022-11-15T11:01:24;12.70;99.90
41668;DHT22;27356;50.920;5.350;2022-11-15T11:04:03;12.90;99.90
41668;DHT22;27356;50.920;5.350;2022-11-15T11:06:30;13.10;99.90
41668;DHT22;27356;50.920;5.350;2022-11-15T11:09:01;13.10;99.90
41668;DHT22;27356;50.920;5.350;2022-11-15T11:14:12;13.10;99.90
41668;DHT22;27356;50.920;5.350;2022-11-15T11:16:42;13.20;99.90
41668;DHT22;27356;50.920;5.350;2022-11-15T11:30:00;13.20;99.90
41668;DHT22;27356;50.920;5.350;2022-11-15T11:40:27;13.50;99.90
41668;DHT22;27356;50.920;5.350;2022-11-15T11:42:51;13.50;99.90
41668;DHT22;27356;50.920;5.350;2022-11-15T11:50:33;13.60;99.90
41668;DHT22;27356;50.920;5.350;2022-11-15T11:53:12;13.70;99.90
41668;DHT22;27356;50.920;5.350;2022-11-15T11:55:39;13.70;99.90
41668;DHT22;27356;50.920;5.350;2022-11-15T12:00:49;13.90;99.90
41668;DHT22;27356;50.920;5.350;2022-11-15T12:03:28;13.70;99.90
41668;DHT22;27356;50.920;5.350;2022-11-15T12:06:05;13.80;99.90
41668;DHT22;27356;50.920;5.350;2022-11-15T12:11:13;13.70;99.90
41668;DHT22;27356;50.920;5.350;2022-11-15T12:13:40;13.80;99.90
41668;DHT22;27356;50.920;5.350;2022-11-15T12:16:09;13.70;99.90
41668;DHT22;27356;50.920;5.350;2022-11-15T12:18:36;13.70;99.90
41668;DHT22;27356;50.920;5.350;2022-11-15T12:21:13;13.90;99.90
41668;DHT22;27356;50.920;5.350;2022-11-15T12:23:44;14.10;99.90
41668;DHT22;27356;50.920;5.350;2022-11-15T12:26:15;14.00;99.90
41668;DHT22;27356;50.920;5.350;2022-11-15T12:28:44;14.00;99.90
41668;DHT22;27356;50.920;5.350;2022-11-15T12:31:18;14.10;99.90
41668;DHT22;27356;50.920;5.350;2022-11-15T12:33:46;14.20;99.90
41668;DHT22;27356;50.920;5.350;2022-11-15T12:41:19;14.10;99.90
41668;DHT22;27356;50.920;5.350;2022-11-15T12:43:46;14.20;99.90
41668;DHT22;27356;50.920;5.350;2022-11-15T12:46:18;14.40;99.90
41668;DHT22;27356;50.920;5.350;2022-11-15T12:48:46;14.50;99.90
41668;DHT22;27356;50.920;5.350;2022-11-15T12:51:15;14.50;99.90
41668;DHT22;27356;50.920;5.350;2022-11-15T12:53:40;14.50;99.90
41668;DHT22;27356;50.920;5.350;2022-11-15T13:06:44;15.20;99.90
41668;DHT22;27356;50.920;5.350;2022-11-15T13:11:55;14.90;99.90
41668;DHT22;27356;50.920;5.350;2022-11-15T13:17:15;15.00;99.90
41668;DHT22;27356;50.920;5.350;2022-11-15T13:19:42;15.00;99.90
41668;DHT22;27356;50.920;5.350;2022-11-15T13:22:11;15.00;99.90
41668;DHT22;27356;50.920;5.350;2022-11-15T13:24:55;14.90;99.90
41668;DHT22;27356;50.920;5.350;2022-11-15T13:27:21;14.80;99.90
41668;DHT22;27356;50.920;5.350;2022-11-15T13:29:47;14.90;99.90
41668;DHT22;27356;50.920;5.350;2022-11-15T13:32:13;14.80;99.90
41668;DHT22;27356;50.920;5.350;2022-11-15T13:34:39;14.80;99.90
41668;DHT22;27356;50.920;5.350;2022-11-15T13:40:37;14.80;99.90
41668;DHT22;27356;50.920;5.350;2022-11-15T13:42:56;14.90;99.90
41668;DHT22;27356;50.920;5.350;2022-11-15T13:45:22;14.90;99.90
41668;DHT22;27356;50.920;5.350;2022-11-15T13:47:55;15.00;99.90
41668;DHT22;27356;50.920;5.350;2022-11-15T13:50:21;15.10;99.90
41668;DHT22;27356;50.920;5.350;2022-11-15T13:52:48;15.10;99.90
41668;DHT22;27356;50.920;5.350;2022-11-15T13:55:21;15.00;99.90
41668;DHT22;27356;50.920;5.350;2022-11-15T13:57:57;15.10;99.90
41668;DHT22;27356;50.920;5.350;2022-11-15T14:02:49;15.20;99.90
41668;DHT22;27356;50.920;5.350;2022-11-15T14:05:18;15.20;99.90
41668;DHT22;27356;50.920;5.350;2022-11-15T14:08:01;15.20;99.90
41668;DHT22;27356;50.920;5.350;2022-11-15T14:10:34;15.20;99.90
41668;DHT22;27356;50.920;5.350;2022-11-15T14:13:01;15.20;99.90
41668;DHT22;27356;50.920;5.350;2022-11-15T14:15:32;15.20;99.90
41668;DHT22;27356;50.920;5.350;2022-11-15T14:17:58;15.10;99.90
41668;DHT22;27356;50.920;5.350;2022-11-15T14:20:28;15.10;99.90
41668;DHT22;27356;50.920;5.350;2022-11-15T14:22:56;14.90;99.90
41668;DHT22;27356;50.920;5.350;2022-11-15T14:25:22;14.60;99.90
41668;DHT22;27356;50.920;5.350;2022-11-15T14:30:33;14.60;99.90
41668;DHT22;27356;50.920;5.350;2022-11-15T14:32:58;14.40;99.90
41668;DHT22;27356;50.920;5.350;2022-11-15T14:35:24;14.30;99.90
41668;DHT22;27356;50.920;5.350;2022-11-15T14:37:49;14.30;99.90
41668;DHT22;27356;50.920;5.350;2022-11-15T14:40:16;14.40;99.90
41668;DHT22;27356;50.920;5.350;2022-11-15T14:42:44;14.40;99.90
41668;DHT22;27356;50.920;5.350;2022-11-15T14:45:15;14.40;99.90
41668;DHT22;27356;50.920;5.350;2022-11-15T14:47:41;14.30;99.90
41668;DHT22;27356;50.920;5.350;2022-11-15T14:50:10;14.20;99.90
41668;DHT22;27356;50.920;5.350;2022-11-15T14:52:36;14.20;99.90
41668;DHT22;27356;50.920;5.350;2022-11-15T14:55:03;14.20;99.90
41668;DHT22;27356;50.920;5.350;2022-11-15T14:57:29;14.20;99.90
41668;DHT22;27356;50.920;5.350;2022-11-15T14:59:55;14.10;99.90
41668;DHT22;27356;50.920;5.350;2022-11-15T15:02:29;14.00;99.90
41668;DHT22;27356;50.920;5.350;2022-11-15T15:05:07;14.00;99.90
41668;DHT22;27356;50.920;5.350;2022-11-15T15:10:32;14.20;99.90
41668;DHT22;27356;50.920;5.350;2022-11-15T15:12:58;14.10;99.90
41668;DHT22;27356;50.920;5.350;2022-11-15T15:15:25;14.20;99.90
41668;DHT22;27356;50.920;5.350;2022-11-15T15:17:51;14.10;99.90
41668;DHT22;27356;50.920;5.350;2022-11-15T15:20:17;14.00;99.90
41668;DHT22;27356;50.920;5.350;2022-11-15T15:22:43;14.00;99.90
41668;DHT22;27356;50.920;5.350;2022-11-15T15:27:43;14.10;99.90
41668;DHT22;27356;50.920;5.350;2022-11-15T15:30:09;14.00;99.90
41668;DHT22;27356;50.920;5.350;2022-11-15T15:32:35;13.90;99.90
41668;DHT22;27356;50.920;5.350;2022-11-15T15:35:01;13.80;99.90
41668;DHT22;27356;50.920;5.350;2022-11-15T15:37:26;13.70;99.90
41668;DHT22;27356;50.920;5.350;2022-11-15T15:39:52;13.60;99.90
41668;DHT22;27356;50.920;5.350;2022-11-15T15:42:19;13.60;99.90
41668;DHT22;27356;50.920;5.350;2022-11-15T15:44:45;13.40;99.90
41668;DHT22;27356;50.920;5.350;2022-11-15T15:47:20;13.30;99.90
41668;DHT22;27356;50.920;5.350;2022-11-15T15:49:47;13.30;99.90
41668;DHT22;27356;50.920;5.350;2022-11-15T15:52:12;13.30;99.90
41668;DHT22;27356;50.920;5.350;2022-11-15T15:54:38;13.20;99.90
41668;DHT22;27356;50.920;5.350;2022-11-15T15:57:04;13.20;99.90
41668;DHT22;27356;50.920;5.350;2022-11-15T15:59:30;13.00;99.90
41668;DHT22;27356;50.920;5.350;2022-11-15T16:01:57;12.90;99.90
41668;DHT22;27356;50.920;5.350;2022-11-15T16:04:26;12.80;99.90
41668;DHT22;27356;50.920;5.350;2022-11-15T16:06:57;12.70;99.90
41668;DHT22;27356;50.920;5.350;2022-11-15T16:09:23;12.50;99.90
41668;DHT22;27356;50.920;5.350;2022-11-15T16:12:09;12.40;99.90
41668;DHT22;27356;50.920;5.350;2022-11-15T16:14:34;12.40;99.90
41668;DHT22;27356;50.920;5.350;2022-11-15T16:17:00;12.50;99.90
41668;DHT22;27356;50.920;5.350;2022-11-15T16:19:25;12.40;99.90
41668;DHT22;27356;50.920;5.350;2022-11-15T16:21:51;12.40;99.90
41668;DHT22;27356;50.920;5.350;2022-11-15T16:24:20;12.40;99.90
41668;DHT22;27356;50.920;5.350;2022-11-15T16:26:46;12.50;99.90
41668;DHT22;27356;50.920;5.350;2022-11-15T16:29:12;12.50;99.90
41668;DHT22;27356;50.920;5.350;2022-11-15T16:31:40;12.40;99.90
41668;DHT22;27356;50.920;5.350;2022-11-15T16:34:05;12.30;99.90
41668;DHT22;27356;50.920;5.350;2022-11-15T16:36:34;12.40;99.90
41668;DHT22;27356;50.920;5.350;2022-11-15T16:39:00;12.40;99.90
41668;DHT22;27356;50.920;5.350;2022-11-15T16:41:29;12.40;99.90
41668;DHT22;27356;50.920;5.350;2022-11-15T16:43:57;12.30;99.90
41668;DHT22;27356;50.920;5.350;2022-11-15T16:46:26;12.20;99.90
41668;DHT22;27356;50.920;5.350;2022-11-15T16:48:53;12.10;99.90
41668;DHT22;27356;50.920;5.350;2022-11-15T16:51:19;12.10;99.90
41668;DHT22;27356;50.920;5.350;2022-11-15T16:53:45;12.00;99.90
41668;DHT22;27356;50.920;5.350;2022-11-15T16:56:18;11.90;99.90
41668;DHT22;27356;50.920;5.350;2022-11-15T16:58:45;11.90;99.90
41668;DHT22;27356;50.920;5.350;2022-11-15T17:01:15;12.00;99.90
41668;DHT22;27356;50.920;5.350;2022-11-15T17:03:41;12.00;99.90
41668;DHT22;27356;50.920;5.350;2022-11-15T17:06:14;12.10;99.90
41668;DHT22;27356;50.920;5.350;2022-11-15T17:08:40;12.10;99.90
41668;DHT22;27356;50.920;5.350;2022-11-15T17:11:06;12.10;99.90
41668;DHT22;27356;50.920;5.350;2022-11-15T17:13:39;12.10;99.90
41668;DHT22;27356;50.920;5.350;2022-11-15T17:16:36;12.10;99.90
41668;DHT22;27356;50.920;5.350;2022-11-15T17:19:16;12.10;99.90
41668;DHT22;27356;50.920;5.350;2022-11-15T17:21:42;12.20;99.90
41668;DHT22;27356;50.920;5.350;2022-11-15T17:24:08;12.20;99.90
41668;DHT22;27356;50.920;5.350;2022-11-15T17:26:34;12.20;99.90
41668;DHT22;27356;50.920;5.350;2022-11-15T17:28:59;12.20;99.90
41668;DHT22;27356;50.920;5.350;2022-11-15T17:31:29;12.00;99.90
41668;DHT22;27356;50.920;5.350;2022-11-15T17:33:55;12.10;99.90
41668;DHT22;27356;50.920;5.350;2022-11-15T17:36:20;12.10;99.90
41668;DHT22;27356;50.920;5.350;2022-11-15T17:38:47;12.00;99.90
41668;DHT22;27356;50.920;5.350;2022-11-15T17:41:16;12.10;99.90
41668;DHT22;27356;50.920;5.350;2022-11-15T17:43:42;12.10;99.90
41668;DHT22;27356;50.920;5.350;2022-11-15T17:46:09;12.10;99.90
41668;DHT22;27356;50.920;5.350;2022-11-15T17:48:35;12.20;99.90
41668;DHT22;27356;50.920;5.350;2022-11-15T17:51:02;12.30;99.90
41668;DHT22;27356;50.920;5.350;2022-11-15T17:53:35;12.40;99.90
41668;DHT22;27356;50.920;5.350;2022-11-15T17:56:05;12.40;99.90
41668;DHT22;27356;50.920;5.350;2022-11-15T17:58:31;12.40;99.90
41668;DHT22;27356;50.920;5.350;2022-11-15T18:01:06;12.40;99.90
41668;DHT22;27356;50.920;5.350;2022-11-15T18:03:32;12.40;99.90
41668;DHT22;27356;50.920;5.350;2022-11-15T18:05:58;12.40;99.90
41668;DHT22;27356;50.920;5.350;2022-11-15T18:08:24;12.30;99.90
41668;DHT22;27356;50.920;5.350;2022-11-15T18:10:49;12.30;99.90
41668;DHT22;27356;50.920;5.350;2022-11-15T18:13:15;12.40;99.90
41668;DHT22;27356;50.920;5.350;2022-11-15T18:15:40;12.40;99.90
41668;DHT22;27356;50.920;5.350;2022-11-15T18:18:06;12.40;99.90
41668;DHT22;27356;50.920;5.350;2022-11-15T18:20:31;12.40;99.90
41668;DHT22;27356;50.920;5.350;2022-11-15T18:22:57;12.40;99.90
41668;DHT22;27356;50.920;5.350;2022-11-15T18:25:22;12.40;99.90
41668;DHT22;27356;50.920;5.350;2022-11-15T18:27:49;12.40;99.90
41668;DHT22;27356;50.920;5.350;2022-11-15T18:30:19;12.40;99.90
41668;DHT22;27356;50.920;5.350;2022-11-15T18:32:45;12.50;99.90
41668;DHT22;27356;50.920;5.350;2022-11-15T18:35:10;12.50;99.90
41668;DHT22;27356;50.920;5.350;2022-11-15T18:37:36;12.50;99.90
41668;DHT22;27356;50.920;5.350;2022-11-15T18:40:02;12.60;99.90
41668;DHT22;27356;50.920;5.350;2022-11-15T18:42:28;12.50;99.90
41668;DHT22;27356;50.920;5.350;2022-11-15T18:44:57;12.40;99.90
41668;DHT22;27356;50.920;5.350;2022-11-15T18:47:22;12.40;99.90
41668;DHT22;27356;50.920;5.350;2022-11-15T18:49:48;12.40;99.90
41668;DHT22;27356;50.920;5.350;2022-11-15T18:52:13;12.40;99.90
41668;DHT22;27356;50.920;5.350;2022-11-15T18:54:39;12.40;99.90
41668;DHT22;27356;50.920;5.350;2022-11-15T18:57:07;12.40;99.90
41668;DHT22;27356;50.920;5.350;2022-11-15T18:59:33;12.40;99.90
41668;DHT22;27356;50.920;5.350;2022-11-15T19:01:58;12.40;99.90
41668;DHT22;27356;50.920;5.350;2022-11-15T19:04:27;12.50;99.90
41668;DHT22;27356;50.920;5.350;2022-11-15T19:10:14;12.50;99.90
41668;DHT22;27356;50.920;5.350;2022-11-15T19:12:43;12.60;99.90
41668;DHT22;27356;50.920;5.350;2022-11-15T19:15:10;12.60;99.90
41668;DHT22;27356;50.920;5.350;2022-11-15T19:17:36;12.60;99.90
41668;DHT22;27356;50.920;5.350;2022-11-15T19:20:01;12.60;99.90
41668;DHT22;27356;50.920;5.350;2022-11-15T19:22:27;12.50;99.90
41668;DHT22;27356;50.920;5.350;2022-11-15T19:24:53;12.60;99.90
41668;DHT22;27356;50.920;5.350;2022-11-15T19:27:18;12.60;99.90
41668;DHT22;27356;50.920;5.350;2022-11-15T19:29:44;12.60;99.90
41668;DHT22;27356;50.920;5.350;2022-11-15T19:32:10;12.60;99.90
41668;DHT22;27356;50.920;5.350;2022-11-15T19:34:35;12.60;99.90
41668;DHT22;27356;50.920;5.350;2022-11-15T19:37:01;12.50;99.90
41668;DHT22;27356;50.920;5.350;2022-11-15T19:39:27;12.50;99.90
41668;DHT22;27356;50.920;5.350;2022-11-15T19:41:53;12.40;99.90
41668;DHT22;27356;50.920;5.350;2022-11-15T19:44:18;12.40;99.90
41668;DHT22;27356;50.920;5.350;2022-11-15T19:46:44;12.40;99.90
41668;DHT22;27356;50.920;5.350;2022-11-15T19:49:09;12.50;99.90
41668;DHT22;27356;50.920;5.350;2022-11-15T19:51:35;12.40;99.90
41668;DHT22;27356;50.920;5.350;2022-11-15T19:54:01;12.50;99.90
41668;DHT22;27356;50.920;5.350;2022-11-15T19:56:31;12.50;99.90
41668;DHT22;27356;50.920;5.350;2022-11-15T19:58:56;12.50;99.90
41668;DHT22;27356;50.920;5.350;2022-11-15T20:01:23;12.50;99.90
41668;DHT22;27356;50.920;5.350;2022-11-15T20:03:49;12.50;99.90
41668;DHT22;27356;50.920;5.350;2022-11-15T20:06:18;12.50;99.90
41668;DHT22;27356;50.920;5.350;2022-11-15T20:08:44;12.50;99.90
41668;DHT22;27356;50.920;5.350;2022-11-15T20:11:10;12.50;99.90
41668;DHT22;27356;50.920;5.350;2022-11-15T20:13:36;12.60;99.90
41668;DHT22;27356;50.920;5.350;2022-11-15T20:16:02;12.40;99.90
41668;DHT22;27356;50.920;5.350;2022-11-15T20:18:28;12.50;99.90
41668;DHT22;27356;50.920;5.350;2022-11-15T20:20:54;12.40;99.90
41668;DHT22;27356;50.920;5.350;2022-11-15T20:23:21;12.50;99.90
41668;DHT22;27356;50.920;5.350;2022-11-15T20:25:46;12.50;99.90
41668;DHT22;27356;50.920;5.350;2022-11-15T20:28:19;12.50;99.90
41668;DHT22;27356;50.920;5.350;2022-11-15T20:30:50;12.50;99.90
41668;DHT22;27356;50.920;5.350;2022-11-15T20:33:16;12.50;99.90
41668;DHT22;27356;50.920;5.350;2022-11-15T20:35:42;12.50;99.90
41668;DHT22;27356;50.920;5.350;2022-11-15T20:38:08;12.50;99.90
41668;DHT22;27356;50.920;5.350;2022-11-15T20:40:34;12.50;99.90
41668;DHT22;27356;50.920;5.350;2022-11-15T20:43:00;12.40;99.90
41668;DHT22;27356;50.920;5.350;2022-11-15T20:45:26;12.50;99.90
41668;DHT22;27356;50.920;5.350;2022-11-15T20:47:55;12.50;99.90
41668;DHT22;27356;50.920;5.350;2022-11-15T20:50:22;12.60;99.90
41668;DHT22;27356;50.920;5.350;2022-11-15T20:52:48;12.50;99.90
41668;DHT22;27356;50.920;5.350;2022-11-15T20:55:13;12.50;99.90
41668;DHT22;27356;50.920;5.350;2022-11-15T20:57:39;12.50;99.90
41668;DHT22;27356;50.920;5.350;2022-11-15T21:00:05;12.60;99.90
41668;DHT22;27356;50.920;5.350;2022-11-15T21:02:30;12.50;99.90
41668;DHT22;27356;50.920;5.350;2022-11-15T21:04:56;12.60;99.90
41668;DHT22;27356;50.920;5.350;2022-11-15T21:07:22;12.60;99.90
41668;DHT22;27356;50.920;5.350;2022-11-15T21:09:47;12.50;99.90
41668;DHT22;27356;50.920;5.350;2022-11-15T21:12:31;12.50;99.90
41668;DHT22;27356;50.920;5.350;2022-11-15T21:14:57;12.50;99.90
41668;DHT22;27356;50.920;5.350;2022-11-15T21:17:23;12.50;99.90
41668;DHT22;27356;50.920;5.350;2022-11-15T21:19:48;12.50;99.90
41668;DHT22;27356;50.920;5.350;2022-11-15T21:22:14;12.50;99.90
41668;DHT22;27356;50.920;5.350;2022-11-15T21:24:40;12.40;99.90
41668;DHT22;27356;50.920;5.350;2022-11-15T21:27:06;12.30;99.90
41668;DHT22;27356;50.920;5.350;2022-11-15T21:29:31;12.30;99.90
41668;DHT22;27356;50.920;5.350;2022-11-15T21:32:06;12.30;99.90
41668;DHT22;27356;50.920;5.350;2022-11-15T21:34:33;12.40;99.90
41668;DHT22;27356;50.920;5.350;2022-11-15T21:36:58;12.40;99.90
41668;DHT22;27356;50.920;5.350;2022-11-15T21:39:24;12.40;99.90
41668;DHT22;27356;50.920;5.350;2022-11-15T21:41:49;12.50;99.90
41668;DHT22;27356;50.920;5.350;2022-11-15T21:44:15;12.50;99.90
41668;DHT22;27356;50.920;5.350;2022-11-15T21:46:41;12.60;99.90
41668;DHT22;27356;50.920;5.350;2022-11-15T21:49:06;12.60;99.90
41668;DHT22;27356;50.920;5.350;2022-11-15T21:51:32;12.60;99.90
41668;DHT22;27356;50.920;5.350;2022-11-15T21:53:58;12.60;99.90
41668;DHT22;27356;50.920;5.350;2022-11-15T21:56:24;12.70;99.90
41668;DHT22;27356;50.920;5.350;2022-11-15T21:58:50;12.60;99.90
41668;DHT22;27356;50.920;5.350;2022-11-15T22:01:16;12.60;99.90
41668;DHT22;27356;50.920;5.350;2022-11-15T22:04:00;12.60;99.90
41668;DHT22;27356;50.920;5.350;2022-11-15T22:06:26;12.60;99.90
41668;DHT22;27356;50.920;5.350;2022-11-15T22:08:51;12.60;99.90
41668;DHT22;27356;50.920;5.350;2022-11-15T22:11:17;12.60;99.90
41668;DHT22;27356;50.920;5.350;2022-11-15T22:13:42;12.60;99.90
41668;DHT22;27356;50.920;5.350;2022-11-15T22:16:08;12.60;99.90
41668;DHT22;27356;50.920;5.350;2022-11-15T22:18:34;12.60;99.90
41668;DHT22;27356;50.920;5.350;2022-11-15T22:21:00;12.70;99.90
41668;DHT22;27356;50.920;5.350;2022-11-15T22:23:27;12.70;99.90
41668;DHT22;27356;50.920;5.350;2022-11-15T22:25:52;12.60;99.90
41668;DHT22;27356;50.920;5.350;2022-11-15T22:28:18;12.50;99.90
41668;DHT22;27356;50.920;5.350;2022-11-15T22:30:44;12.50;99.90
41668;DHT22;27356;50.920;5.350;2022-11-15T22:33:10;12.50;99.90
41668;DHT22;27356;50.920;5.350;2022-11-15T22:35:36;12.60;99.90
41668;DHT22;27356;50.920;5.350;2022-11-15T22:38:01;12.60;99.90
41668;DHT22;27356;50.920;5.350;2022-11-15T22:40:27;12.50;99.90
41668;DHT22;27356;50.920;5.350;2022-11-15T22:42:53;12.50;99.90
41668;DHT22;27356;50.920;5.350;2022-11-15T22:45:18;12.50;99.90